Terminal Aerodrome Forecast
Issued by NWS Pocatello, ID

Home | Current Version | Previous Version | Text Only | Print | Product List | Glossary On
Versions: 1 2 3 4 5 6 7 8 9 10 11 12 13
947
FTUS45 KPIH 060039 AAA
TAFPIH
TAF AMD
KPIH 060039Z 0601/0624 18010KT P6SM FEW080 BKN200
     FM060500 05007KT P6SM VCSH SCT070 BKN110
     FM061200 05005KT P6SM SCT100 BKN180
     FM061800 08012G20KT P6SM VCTS SCT070CB BKN120=

USA.gov is the U.S. government's official web portal to all federal, state and local government web resources and services.